Time;durP1;ratioP1;P1;durP2;ratioP2;P2;SDS_P1;SDS_P2;PMS_P1;PMS_P2;Temp;Humidity;BMP_temperature;BMP_pressure;BME280_temperature;BME280_humidity;BME280_pressure;Samples;Min_cycle;Max_cycle;Signal;HPM_P1;HPM_P2
2023/03/10 00:00:20;;;;;;;;;;;;;;;-142.41;100.00;64449.00;5116146;28;20275;-68
2023/03/10 00:02:49;;;;;;;;;;;;;;;-142.41;100.00;64449.00;5116026;28;20275;-69
2023/03/10 00:05:17;;;;;;;;;;;;;;;-142.41;100.00;64449.00;5116059;28;19955;-68
2023/03/10 00:07:43;;;;;;;;;;;;;;;-142.41;100.00;64449.00;5116304;28;19912;-68
2023/03/10 00:10:13;;;;;;;;;;;;;;;-142.41;100.00;64449.00;5116284;28;20015;-69
2023/03/10 00:12:38;;;;;;;;;;;;;;;-142.41;100.00;64449.00;5116145;28;19919;-67
2023/03/10 00:15:04;;;;;;;;;;;;;;;-142.41;100.00;64449.00;5115829;28;19912;-68
2023/03/10 00:17:30;;;;;;;;;;;;;;;-142.41;100.00;64449.00;5115681;28;20256;-69
2023/03/10 00:19:55;;;;;;;;;;;;;;;-142.41;100.00;64449.00;5115633;28;19972;-70
2023/03/10 00:22:21;;;;;;;;;;;;;;;-142.41;100.00;64449.00;5116121;28;20355;-69
2023/03/10 00:24:46;;;;;;;;;;;;;;;-142.41;100.00;64449.00;5117715;28;19912;-70
2023/03/10 00:27:11;;;;;;;;;;;;;;;-142.41;100.00;64449.00;5115982;28;19957;-67
2023/03/10 00:29:37;;;;;;;;;;;;;;;-142.41;100.00;64449.00;5115358;28;19919;-71
2023/03/10 00:32:02;;;;;;;;;;;;;;;-142.41;100.00;64449.00;5115604;28;19961;-69
2023/03/10 00:34:30;;;;;;;;;;;;;;;-142.41;100.00;64449.00;5115345;28;19922;-69
2023/03/10 00:36:57;;;;;;;;;;;;;;;-142.41;100.00;64449.00;5096475;28;20220;-68
2023/03/10 00:39:23;;;;;;;;;;;;;;;-142.41;100.00;64449.00;5114270;28;20243;-68
2023/03/10 00:41:48;;;;;;;;;;;;;;;-142.41;100.00;64449.00;5097317;28;20362;-67
2023/03/10 00:44:14;;;;;;;;;;;;;;;-142.41;100.00;64449.00;5114956;28;19959;-65
2023/03/10 00:46:39;;;;;;;;;;;;;;;-142.41;100.00;64449.00;5115063;28;19937;-67
2023/03/10 00:49:12;;;;;;;;;;;;;;;-142.41;100.00;64449.00;5114765;28;19916;-69
2023/03/10 00:51:37;;;;;;;;;;;;;;;-142.41;100.00;64449.00;5114736;28;20361;-67
2023/03/10 00:54:03;;;;;;;;;;;;;;;-142.41;100.00;64449.00;5114864;28;19912;-67
2023/03/10 00:56:29;;;;;;;;;;;;;;;-142.41;100.00;64449.00;5114549;28;19947;-68
2023/03/10 00:58:56;;;;;;;;;;;;;;;-142.41;100.00;64449.00;5114909;28;19911;-69
2023/03/10 01:01:35;;;;;;;;;;;;;;;-142.41;100.00;64449.00;5114523;28;20359;-69
2023/03/10 01:04:02;;;;;;;;;;;;;;;-142.41;100.00;64449.00;5115092;28;19918;-68
2023/03/10 01:06:27;;;;;;;;;;;;;;;-142.41;100.00;64449.00;5114305;28;19926;-67
2023/03/10 01:08:53;;;;;;;;;;;;;;;-142.41;100.00;64449.00;5114999;28;19912;-68
2023/03/10 01:11:20;;;;;;;;;;;;;;;-142.41;100.00;64449.00;5118620;28;19912;-67
2023/03/10 01:13:46;;;;;;;;;;;;;;;-142.41;100.00;64449.00;5116786;28;19919;-68
2023/03/10 01:16:11;;;;;;;;;;;;;;;-142.41;100.00;64449.00;5114663;28;19919;-68
2023/03/10 01:18:36;;;;;;;;;;;;;;;-142.41;100.00;64449.00;5117552;28;19923;-66
2023/03/10 01:21:02;;;;;;;;;;;;;;;-142.41;100.00;64449.00;5114949;28;20275;-67
2023/03/10 01:23:28;;;;;;;;;;;;;;;-142.41;100.00;64449.00;5115566;28;19951;-67
2023/03/10 01:25:53;;;;;;;;;;;;;;;-142.41;100.00;64449.00;5116102;28;19934;-69
2023/03/10 01:28:19;;;;;;;;;;;;;;;-142.41;100.00;64449.00;5117829;28;20360;-66
2023/03/10 01:30:45;;;;;;;;;;;;;;;-142.41;100.00;64449.00;5116355;28;19916;-67
2023/03/10 01:33:10;;;;;;;;;;;;;;;-142.41;100.00;64449.00;5118117;28;20060;-66
2023/03/10 01:35:36;;;;;;;;;;;;;;;-142.41;100.00;64449.00;5114028;28;19930;-68
2023/03/10 01:38:02;;;;;;;;;;;;;;;-142.41;100.00;64449.00;5114182;28;19919;-67
2023/03/10 01:40:28;;;;;;;;;;;;;;;-142.41;100.00;64449.00;5113719;28;19911;-67
2023/03/10 01:43:13;;;;;;;;;;;;;;;-142.41;100.00;64449.00;5114037;28;20289;-66
2023/03/10 01:45:38;;;;;;;;;;;;;;;-142.41;100.00;64449.00;5113742;28;19912;-66
2023/03/10 01:48:04;;;;;;;;;;;;;;;-142.41;100.00;64449.00;5113747;28;19919;-67
2023/03/10 01:50:30;;;;;;;;;;;;;;;-142.41;100.00;64449.00;5113925;28;19912;-66
2023/03/10 01:52:57;;;;;;;;;;;;;;;-142.41;100.00;64449.00;5113840;28;19915;-67
2023/03/10 01:55:42;;;;;;;;;;;;;;;-142.41;100.00;64449.00;5113999;28;19912;-67
2023/03/10 01:58:09;;;;;;;;;;;;;;;-142.41;100.00;64449.00;5112962;28;19932;-68
2023/03/10 02:00:35;;;;;;;;;;;;;;;-142.41;100.00;64449.00;5095088;28;20363;-68
2023/03/10 02:03:06;;;;;;;;;;;;;;;-142.41;100.00;64449.00;5113739;28;19912;-69
2023/03/10 02:05:33;;;;;;;;;;;;;;;-142.41;100.00;64449.00;5095766;28;19915;-67
2023/03/10 02:07:59;;;;;;;;;;;;;;;-142.41;100.00;64449.00;5113458;28;19962;-70
2023/03/10 02:10:25;;;;;;;;;;;;;;;-142.41;100.00;64449.00;5113249;28;20316;-68
2023/03/10 02:12:50;;;;;;;;;;;;;;;-142.41;100.00;64449.00;5095123;28;20372;-68
2023/03/10 02:15:16;;;;;;;;;;;;;;;-142.41;100.00;64449.00;5113579;28;19951;-67
2023/03/10 02:17:41;;;;;;;;;;;;;;;-142.41;100.00;64449.00;5095171;28;19912;-67
2023/03/10 02:20:10;;;;;;;;;;;;;;;-142.41;100.00;64449.00;5113256;28;20007;-69
2023/03/10 02:22:39;;;;;;;;;;;;;;;-142.41;100.00;64449.00;5113283;28;19949;-69
2023/03/10 02:25:13;;;;;;;;;;;;;;;-142.41;100.00;64449.00;5113227;28;19919;-69
2023/03/10 02:27:38;;;;;;;;;;;;;;;-142.41;100.00;64449.00;5113245;28;19919;-68
2023/03/10 02:30:12;;;;;;;;;;;;;;;-142.41;100.00;64449.00;5113214;28;19918;-68
2023/03/10 02:32:42;;;;;;;;;;;;;;;-142.41;100.00;64449.00;5112998;28;19969;-71
2023/03/10 02:35:08;;;;;;;;;;;;;;;-142.41;100.00;64449.00;5113634;28;20359;-69
2023/03/10 02:37:34;;;;;;;;;;;;;;;-142.41;100.00;64449.00;5115264;28;19912;-68
2023/03/10 02:40:00;;;;;;;;;;;;;;;-142.41;100.00;64449.00;5113932;28;19918;-68
2023/03/10 02:42:31;;;;;;;;;;;;;;;-142.41;100.00;64449.00;5113065;28;20018;-69
2023/03/10 02:44:56;;;;;;;;;;;;;;;-142.41;100.00;64449.00;5112744;28;20343;-68
2023/03/10 02:47:22;;;;;;;;;;;;;;;-142.41;100.00;64449.00;5112971;28;19954;-67
2023/03/10 02:49:47;;;;;;;;;;;;;;;-142.41;100.00;64449.00;5112872;28;19967;-68
2023/03/10 02:52:24;;;;;;;;;;;;;;;-142.41;100.00;64449.00;5112630;28;19912;-67
2023/03/10 02:54:50;;;;;;;;;;;;;;;-142.41;100.00;64449.00;5113023;28;20039;-68
2023/03/10 02:57:15;;;;;;;;;;;;;;;-142.41;100.00;64449.00;5112919;28;19941;-67
2023/03/10 02:59:40;;;;;;;;;;;;;;;-142.41;100.00;64449.00;5112746;28;20279;-69
2023/03/10 03:02:06;;;;;;;;;;;;;;;-142.41;100.00;64449.00;5113780;28;20003;-66
2023/03/10 03:04:31;;;;;;;;;;;;;;;-142.41;100.00;64449.00;5116970;28;20008;-69
2023/03/10 03:06:56;;;;;;;;;;;;;;;-142.41;100.00;64449.00;5116885;28;19919;-68
2023/03/10 03:09:22;;;;;;;;;;;;;;;-142.41;100.00;64449.00;5098762;28;19935;-68
2023/03/10 03:11:47;;;;;;;;;;;;;;;-142.41;100.00;64449.00;5117114;28;20292;-67
2023/03/10 03:14:12;;;;;;;;;;;;;;;-142.41;100.00;64449.00;5116743;28;20278;-68
2023/03/10 03:16:38;;;;;;;;;;;;;;;-142.41;100.00;64449.00;5116697;28;19973;-69
2023/03/10 03:19:03;;;;;;;;;;;;;;;-142.41;100.00;64449.00;5116694;28;20236;-70
2023/03/10 03:21:29;;;;;;;;;;;;;;;-142.41;100.00;64449.00;5116749;28;20308;-67
2023/03/10 03:23:55;;;;;;;;;;;;;;;-142.41;100.00;64449.00;5116592;28;19941;-69
2023/03/10 03:26:21;;;;;;;;;;;;;;;-142.41;100.00;64449.00;5116804;28;19911;-69
2023/03/10 03:28:47;;;;;;;;;;;;;;;-142.41;100.00;64449.00;5116753;28;19912;-67
2023/03/10 03:31:13;;;;;;;;;;;;;;;-142.41;100.00;64449.00;5119428;28;20332;-67
2023/03/10 03:33:39;;;;;;;;;;;;;;;-142.41;100.00;64449.00;5099723;28;20390;-67
2023/03/10 03:36:04;;;;;;;;;;;;;;;-142.41;100.00;64449.00;5116558;28;19915;-68
2023/03/10 03:38:31;;;;;;;;;;;;;;;-142.41;100.00;64449.00;5116567;28;19919;-67
2023/03/10 03:40:56;;;;;;;;;;;;;;;-142.41;100.00;64449.00;5116473;28;20435;-66
2023/03/10 03:43:22;;;;;;;;;;;;;;;-142.41;100.00;64449.00;5116916;28;20006;-66
2023/03/10 03:45:47;;;;;;;;;;;;;;;-142.41;100.00;64449.00;5116205;28;19912;-67
2023/03/10 03:48:13;;;;;;;;;;;;;;;-142.41;100.00;64449.00;5116103;28;20002;-68
2023/03/10 03:50:38;;;;;;;;;;;;;;;-142.41;100.00;64449.00;5116131;28;19911;-66
2023/03/10 03:53:04;;;;;;;;;;;;;;;-142.41;100.00;64449.00;5116197;28;20023;-68
2023/03/10 03:55:30;;;;;;;;;;;;;;;-142.41;100.00;64449.00;5116198;28;19931;-67
2023/03/10 03:57:55;;;;;;;;;;;;;;;-142.41;100.00;64449.00;5116017;28;20275;-67
2023/03/10 04:00:22;;;;;;;;;;;;;;;-142.41;100.00;64449.00;5097807;28;19912;-68
2023/03/10 04:02:47;;;;;;;;;;;;;;;-142.41;100.00;64449.00;5131391;27;19933;-69
2023/03/10 04:05:12;;;;;;;;;;;;;;;-142.41;100.00;64449.00;5103161;27;19916;-67
2023/03/10 04:07:39;;;;;;;;;;;;;;;-142.41;100.00;64449.00;5107459;27;19911;-69
2023/03/10 04:10:05;;;;;;;;;;;;;;;-142.41;100.00;64449.00;5136223;27;19954;-68
2023/03/10 04:12:30;;;;;;;;;;;;;;;-142.41;100.00;64449.00;5136482;27;19911;-69
2023/03/10 04:14:56;;;;;;;;;;;;;;;-142.41;100.00;64449.00;5134836;27;20071;-69
2023/03/10 04:17:21;;;;;;;;;;;;;;;-142.41;100.00;64449.00;5117687;27;19941;-68
2023/03/10 04:19:46;;;;;;;;;;;;;;;-142.41;100.00;64449.00;5135924;27;20262;-67
2023/03/10 04:22:12;;;;;;;;;;;;;;;-142.41;100.00;64449.00;5135935;27;20010;-67
2023/03/10 04:24:38;;;;;;;;;;;;;;;-142.41;100.00;64449.00;5136227;27;19912;-66
2023/03/10 04:27:03;;;;;;;;;;;;;;;-142.41;100.00;64449.00;5136141;27;19919;-67
2023/03/10 04:29:29;;;;;;;;;;;;;;;-142.41;100.00;64449.00;5135882;27;19951;-65
2023/03/10 04:31:54;;;;;;;;;;;;;;;-142.41;100.00;64449.00;5135563;27;19915;-67
2023/03/10 04:34:19;;;;;;;;;;;;;;;-142.41;100.00;64449.00;5135872;27;19915;-67
2023/03/10 04:36:45;;;;;;;;;;;;;;;-142.41;100.00;64449.00;5135399;27;19923;-68
2023/03/10 04:39:10;;;;;;;;;;;;;;;-142.41;100.00;64449.00;5135406;27;19912;-67
2023/03/10 04:41:35;;;;;;;;;;;;;;;-142.41;100.00;64449.00;5135739;27;20390;-66
2023/03/10 04:44:01;;;;;;;;;;;;;;;-142.41;100.00;64449.00;5135869;27;19937;-65
2023/03/10 04:46:26;;;;;;;;;;;;;;;-142.41;100.00;64449.00;5135605;27;19915;-68
2023/03/10 04:48:52;;;;;;;;;;;;;;;-142.41;100.00;64449.00;5135284;27;19911;-64
2023/03/10 04:51:17;;;;;;;;;;;;;;;-142.41;100.00;64449.00;5135332;27;19912;-66
2023/03/10 04:53:42;;;;;;;;;;;;;;;-142.41;100.00;64449.00;5135244;27;19911;-66
2023/03/10 04:56:09;;;;;;;;;;;;;;;-142.41;100.00;64449.00;5116872;27;20381;-66
2023/03/10 04:58:34;;;;;;;;;;;;;;;-142.41;100.00;64449.00;5134711;27;20010;-67
2023/03/10 05:00:59;;;;;;;;;;;;;;;-142.41;100.00;64449.00;5135077;27;20001;-68
2023/03/10 05:03:25;;;;;;;;;;;;;;;-142.41;100.00;64449.00;5135285;27;20008;-66
2023/03/10 05:05:50;;;;;;;;;;;;;;;-142.41;100.00;64449.00;5134828;27;20047;-66
2023/03/10 05:08:16;;;;;;;;;;;;;;;-142.41;100.00;64449.00;5134756;27;19918;-65
2023/03/10 05:10:42;;;;;;;;;;;;;;;-142.41;100.00;64449.00;5135087;27;20010;-65
2023/03/10 05:13:11;;;;;;;;;;;;;;;-142.41;100.00;64449.00;5134981;27;20251;-65
2023/03/10 05:15:36;;;;;;;;;;;;;;;-142.41;100.00;64449.00;5134778;27;20005;-66
2023/03/10 05:18:02;;;;;;;;;;;;;;;-142.41;100.00;64449.00;5134925;27;19957;-67
2023/03/10 05:20:27;;;;;;;;;;;;;;;-142.41;100.00;64449.00;5116499;27;19923;-66
2023/03/10 05:22:53;;;;;;;;;;;;;;;-142.41;100.00;64449.00;5116396;27;19915;-68
2023/03/10 05:25:19;;;;;;;;;;;;;;;-142.41;100.00;64449.00;5134308;27;19918;-67
2023/03/10 05:27:44;;;;;;;;;;;;;;;-142.41;100.00;64449.00;5134689;27;19911;-67
2023/03/10 05:30:10;;;;;;;;;;;;;;;-142.41;100.00;64449.00;5135082;27;19951;-67
2023/03/10 05:32:36;;;;;;;;;;;;;;;-142.41;100.00;64449.00;5135932;27;19926;-67
2023/03/10 05:35:02;;;;;;;;;;;;;;;-142.41;100.00;64449.00;5134842;27;19916;-68
2023/03/10 05:37:28;;;;;;;;;;;;;;;-142.41;100.00;64449.00;5134866;27;20017;-69
2023/03/10 05:39:53;;;;;;;;;;;;;;;-142.41;100.00;64449.00;5135485;27;20059;-70
2023/03/10 05:42:18;;;;;;;;;;;;;;;-142.41;100.00;64449.00;5116443;27;19956;-69
2023/03/10 05:44:44;;;;;;;;;;;;;;;-142.41;100.00;64449.00;5134997;27;19960;-69
2023/03/10 05:47:09;;;;;;;;;;;;;;;-142.41;100.00;64449.00;5136261;27;19915;-70
2023/03/10 05:49:35;;;;;;;;;;;;;;;-142.41;100.00;64449.00;5135565;27;20345;-71
2023/03/10 05:52:00;;;;;;;;;;;;;;;-142.41;100.00;64449.00;5134910;27;19918;-72
2023/03/10 05:54:26;;;;;;;;;;;;;;;-142.41;100.00;64449.00;5134388;27;20001;-75
2023/03/10 05:56:51;;;;;;;;;;;;;;;-142.41;100.00;64449.00;5134351;27;19943;-74
2023/03/10 05:59:16;;;;;;;;;;;;;;;-142.41;100.00;64449.00;5134166;27;19911;-70
2023/03/10 06:01:42;;;;;;;;;;;;;;;-142.41;100.00;64449.00;5134609;27;19912;-69
2023/03/10 06:04:07;;;;;;;;;;;;;;;-142.41;100.00;64449.00;5134790;27;19958;-70
2023/03/10 06:06:33;;;;;;;;;;;;;;;-142.41;100.00;64449.00;5134167;27;20359;-73
2023/03/10 06:09:10;;;;;;;;;;;;;;;-142.41;100.00;64449.00;5134196;27;19911;-76
2023/03/10 06:11:35;;;;;;;;;;;;;;;-142.41;100.00;64449.00;5118421;27;19973;-70
2023/03/10 06:14:01;;;;;;;;;;;;;;;-142.41;100.00;64449.00;5133879;27;20278;-71
2023/03/10 06:16:26;;;;;;;;;;;;;;;-142.41;100.00;64449.00;5133444;27;19911;-70
2023/03/10 06:18:54;;;;;;;;;;;;;;;-142.41;100.00;64449.00;5133584;27;19911;-71
2023/03/10 06:21:19;;;;;;;;;;;;;;;-142.41;100.00;64449.00;5133780;27;20370;-72
2023/03/10 06:23:45;;;;;;;;;;;;;;;-142.41;100.00;64449.00;5115288;27;19923;-71
2023/03/10 06:26:12;;;;;;;;;;;;;;;-142.41;100.00;64449.00;5133826;27;20275;-70
2023/03/10 06:28:39;;;;;;;;;;;;;;;-142.41;100.00;64449.00;5133695;27;19919;-71
2023/03/10 06:31:06;;;;;;;;;;;;;;;-142.41;100.00;64449.00;5133312;27;20359;-70
2023/03/10 06:33:32;;;;;;;;;;;;;;;-142.41;100.00;64449.00;5133175;27;20002;-73
2023/03/10 06:35:57;;;;;;;;;;;;;;;-142.41;100.00;64449.00;5134371;27;19980;-66
2023/03/10 06:38:23;;;;;;;;;;;;;;;-142.41;100.00;64449.00;5133206;27;20260;-69
2023/03/10 06:40:48;;;;;;;;;;;;;;;-142.41;100.00;64449.00;5115001;27;19915;-68
2023/03/10 06:43:14;;;;;;;;;;;;;;;-142.41;100.00;64449.00;5133474;27;20274;-67
2023/03/10 06:45:40;;;;;;;;;;;;;;;-142.41;100.00;64449.00;5133258;27;20366;-69
2023/03/10 06:48:06;;;;;;;;;;;;;;;-142.41;100.00;64449.00;5114535;28;20319;-69
2023/03/10 06:50:31;;;;;;;;;;;;;;;-142.41;100.00;64449.00;5132497;27;19918;-67
2023/03/10 06:52:56;;;;;;;;;;;;;;;-142.41;100.00;64449.00;5131916;28;20102;-68
2023/03/10 06:55:22;;;;;;;;;;;;;;;-142.41;100.00;64449.00;5113622;28;19918;-71
2023/03/10 06:57:47;;;;;;;;;;;;;;;-142.41;100.00;64449.00;5113752;28;20351;-68
2023/03/10 07:00:14;;;;;;;;;;;;;;;-142.41;100.00;64449.00;5132137;28;19911;-68
2023/03/10 07:02:40;;;;;;;;;;;;;;;-142.41;100.00;64449.00;5131879;28;19911;-70
2023/03/10 07:05:06;;;;;;;;;;;;;;;-142.41;100.00;64449.00;5133011;28;19946;-68
2023/03/10 07:07:34;;;;;;;;;;;;;;;-142.41;100.00;64449.00;5133325;28;19919;-69
2023/03/10 07:10:00;;;;;;;;;;;;;;;-142.41;100.00;64449.00;5133202;28;20415;-71
2023/03/10 07:12:25;;;;;;;;;;;;;;;-142.41;100.00;64449.00;5132801;28;19916;-69
2023/03/10 07:14:50;;;;;;;;;;;;;;;-142.41;100.00;64449.00;5114440;28;19937;-69
2023/03/10 07:17:16;;;;;;;;;;;;;;;-142.41;100.00;64449.00;5132610;28;19918;-68
2023/03/10 07:19:42;;;;;;;;;;;;;;;-142.41;100.00;64449.00;5132846;28;19964;-71
2023/03/10 07:22:08;;;;;;;;;;;;;;;-142.41;100.00;64449.00;5114595;28;20362;-69
2023/03/10 07:24:40;;;;;;;;;;;;;;;-142.41;100.00;64449.00;5132931;28;19916;-69
2023/03/10 07:27:08;;;;;;;;;;;;;;;-142.41;100.00;64449.00;5133124;28;19930;-69
2023/03/10 07:29:34;;;;;;;;;;;;;;;-142.41;100.00;64449.00;5132740;28;19919;-70
2023/03/10 07:32:01;;;;;;;;;;;;;;;-142.41;100.00;64449.00;5132982;28;19915;-69
2023/03/10 07:34:32;;;;;;;;;;;;;;;-142.41;100.00;64449.00;5132973;28;19922;-67
2023/03/10 07:36:57;;;;;;;;;;;;;;;-142.41;100.00;64449.00;5132681;28;19961;-68
2023/03/10 07:39:23;;;;;;;;;;;;;;;-142.41;100.00;64449.00;5114214;28;20327;-68
2023/03/10 07:41:48;;;;;;;;;;;;;;;-142.41;100.00;64449.00;5132905;28;19922;-69
2023/03/10 07:44:14;;;;;;;;;;;;;;;-142.41;100.00;64449.00;5132686;28;20010;-68
2023/03/10 07:46:39;;;;;;;;;;;;;;;-142.41;100.00;64449.00;5132874;28;19919;-67
2023/03/10 07:49:04;;;;;;;;;;;;;;;-142.41;100.00;64449.00;5135302;27;20259;-68
2023/03/10 07:51:30;;;;;;;;;;;;;;;-142.41;100.00;64449.00;5118091;27;19911;-68
2023/03/10 07:53:56;;;;;;;;;;;;;;;-142.41;100.00;64449.00;5136616;27;19915;-67
2023/03/10 07:56:21;;;;;;;;;;;;;;;-142.41;100.00;64449.00;5137285;27;20290;-69
2023/03/10 07:58:47;;;;;;;;;;;;;;;-142.41;100.00;64449.00;5136559;27;20045;-69
2023/03/10 08:01:14;;;;;;;;;;;;;;;-142.41;100.00;64449.00;5136444;27;19911;-69
2023/03/10 08:03:39;;;;;;;;;;;;;;;-142.41;100.00;64449.00;5136330;27;20508;-69
2023/03/10 08:06:05;;;;;;;;;;;;;;;-142.41;100.00;64449.00;5137141;27;19967;-68
2023/03/10 08:08:30;;;;;;;;;;;;;;;-142.41;100.00;64449.00;5119332;27;20000;-68
2023/03/10 08:11:03;;;;;;;;;;;;;;;-142.41;100.00;64449.00;5102739;27;19911;-69
2023/03/10 08:13:29;;;;;;;;;;;;;;;-142.41;100.00;64449.00;5138539;27;19919;-68
2023/03/10 08:15:54;;;;;;;;;;;;;;;-142.41;100.00;64449.00;5137896;27;20296;-68
2023/03/10 08:18:21;;;;;;;;;;;;;;;-142.41;100.00;64449.00;5137540;27;19912;-69
2023/03/10 08:20:46;;;;;;;;;;;;;;;-142.41;100.00;64449.00;5136731;27;19911;-68
2023/03/10 08:23:12;;;;;;;;;;;;;;;-142.41;100.00;64449.00;5136738;27;19912;-67
2023/03/10 08:25:37;;;;;;;;;;;;;;;-142.41;100.00;64449.00;5117701;27;19958;-68
2023/03/10 08:28:03;;;;;;;;;;;;;;;-142.41;100.00;64449.00;5135703;27;19937;-69
2023/03/10 08:30:28;;;;;;;;;;;;;;;-142.41;100.00;64449.00;5117635;27;19940;-69
2023/03/10 08:32:54;;;;;;;;;;;;;;;-142.41;100.00;64449.00;5117397;27;19930;-68
2023/03/10 08:35:19;;;;;;;;;;;;;;;-142.41;100.00;64449.00;5135780;27;19915;-68
2023/03/10 08:37:45;;;;;;;;;;;;;;;-142.41;100.00;64449.00;5136769;27;19993;-70
2023/03/10 08:40:12;;;;;;;;;;;;;;;-142.41;100.00;64449.00;5139646;27;19964;-68
2023/03/10 08:42:37;;;;;;;;;;;;;;;-142.41;100.00;64449.00;5117792;27;20315;-69
2023/03/10 08:45:03;;;;;;;;;;;;;;;-142.41;100.00;64449.00;5136712;27;20006;-69
2023/03/10 08:47:29;;;;;;;;;;;;;;;-142.41;100.00;64449.00;5136827;27;19911;-68
2023/03/10 08:49:54;;;;;;;;;;;;;;;-142.41;100.00;64449.00;5136329;27;19911;-70
2023/03/10 08:52:19;;;;;;;;;;;;;;;-142.41;100.00;64449.00;5136876;27;19911;-68
2023/03/10 08:54:45;;;;;;;;;;;;;;;-142.41;100.00;64449.00;5135249;27;19915;-67
2023/03/10 08:57:10;;;;;;;;;;;;;;;-142.41;100.00;64449.00;5117593;27;20334;-67
2023/03/10 08:59:35;;;;;;;;;;;;;;;-142.41;100.00;64449.00;5134957;27;20063;-68
2023/03/10 09:02:01;;;;;;;;;;;;;;;-142.41;100.00;64449.00;5135839;27;19915;-67
2023/03/10 09:04:26;;;;;;;;;;;;;;;-142.41;100.00;64449.00;5135574;27;19911;-69
2023/03/10 09:06:51;;;;;;;;;;;;;;;-142.41;100.00;64449.00;5116910;27;20027;-69
2023/03/10 09:09:17;;;;;;;;;;;;;;;-142.41;100.00;64449.00;5117167;27;19911;-66
2023/03/10 09:11:45;;;;;;;;;;;;;;;-142.41;100.00;64449.00;5135527;27;19919;-68
2023/03/10 09:14:10;;;;;;;;;;;;;;;-142.41;100.00;64449.00;5117359;27;20263;-68
2023/03/10 09:16:38;;;;;;;;;;;;;;;-142.41;100.00;64449.00;5136251;27;19919;-67
2023/03/10 09:19:03;;;;;;;;;;;;;;;-142.41;100.00;64449.00;5135337;27;19912;-67
2023/03/10 09:21:30;;;;;;;;;;;;;;;-142.41;100.00;64449.00;5135405;27;19919;-69
2023/03/10 09:23:59;;;;;;;;;;;;;;;-142.41;100.00;64449.00;5135258;27;20381;-67
2023/03/10 09:26:50;;;;;;;;;;;;;;;-142.41;100.00;64449.00;5135663;27;19938;-69
2023/03/10 09:29:16;;;;;;;;;;;;;;;-142.41;100.00;64449.00;5134978;27;20270;-67
2023/03/10 09:31:42;;;;;;;;;;;;;;;-142.41;100.00;64449.00;5134993;27;19912;-68
2023/03/10 09:34:08;;;;;;;;;;;;;;;-142.41;100.00;64449.00;5136854;27;20330;-66
2023/03/10 09:36:34;;;;;;;;;;;;;;;-142.41;100.00;64449.00;5135688;27;19941;-68
2023/03/10 09:38:59;;;;;;;;;;;;;;;-142.41;100.00;64449.00;5136909;27;19911;-69
2023/03/10 09:41:34;;;;;;;;;;;;;;;-142.41;100.00;64449.00;5138597;27;19946;-70
2023/03/10 09:44:17;;;;;;;;;;;;;;;-142.41;100.00;64449.00;5146687;27;19917;-73
2023/03/10 09:47:02;;;;;;;;;;;;;;;-142.41;100.00;64449.00;5122732;27;19911;-77
2023/03/10 09:49:27;;;;;;;;;;;;;;;-142.41;100.00;64449.00;5139841;27;19919;-71
2023/03/10 09:51:53;;;;;;;;;;;;;;;-142.41;100.00;64449.00;5135202;27;19911;-73
2023/03/10 09:54:39;;;;;;;;;;;;;;;-142.41;100.00;64449.00;5134313;27;19911;-72
2023/03/10 09:57:13;;;;;;;;;;;;;;;-142.41;100.00;64449.00;5134555;27;19912;-73
2023/03/10 09:59:39;;;;;;;;;;;;;;;-142.41;100.00;64449.00;5115764;27;19915;-75
2023/03/10 10:02:20;;;;;;;;;;;;;;;-142.41;100.00;64449.00;5134312;27;19912;-69
2023/03/10 10:04:46;;;;;;;;;;;;;;;-142.41;100.00;64449.00;5134490;27;19935;-70
2023/03/10 10:07:16;;;;;;;;;;;;;;;-142.41;100.00;64449.00;5134121;27;19939;-73
2023/03/10 10:09:57;;;;;;;;;;;;;;;-142.41;100.00;64449.00;5134924;27;19919;-71
2023/03/10 10:12:24;;;;;;;;;;;;;;;-142.41;100.00;64449.00;5137847;27;19912;-70
2023/03/10 10:14:57;;;;;;;;;;;;;;;-142.41;100.00;64449.00;5122043;27;19911;-74
2023/03/10 10:17:25;;;;;;;;;;;;;;;-142.41;100.00;64449.00;5113377;28;19918;-74
2023/03/10 10:19:51;;;;;;;;;;;;;;;-142.41;100.00;64449.00;5113242;28;19919;-71
2023/03/10 10:22:26;;;;;;;;;;;;;;;-142.41;100.00;64449.00;5113610;28;19976;-75
2023/03/10 10:25:07;;;;;;;;;;;;;;;-142.41;100.00;64449.00;5100584;27;19964;-71
2023/03/10 10:27:33;;;;;;;;;;;;;;;-142.41;100.00;64449.00;5128309;27;19951;-71
2023/03/10 10:30:18;;;;;;;;;;;;;;;-142.41;100.00;64449.00;5133655;27;20331;-72
2023/03/10 10:32:57;;;;;;;;;;;;;;;-142.41;100.00;64449.00;5133464;27;20321;-69
2023/03/10 10:35:24;;;;;;;;;;;;;;;-142.41;100.00;64449.00;5115062;27;19922;-74
2023/03/10 10:38:18;;;;;;;;;;;;;;;-142.41;100.00;64449.00;5115259;27;19939;-73
2023/03/10 10:40:47;;;;;;;;;;;;;;;-142.41;100.00;64449.00;5115264;27;19963;-71
2023/03/10 10:43:16;;;;;;;;;;;;;;;-142.41;100.00;64449.00;5133558;27;19911;-74
2023/03/10 10:45:41;;;;;;;;;;;;;;;-142.41;100.00;64449.00;5115099;28;20483;-72
2023/03/10 10:48:27;;;;;;;;;;;;;;;-142.41;100.00;64449.00;5133662;27;20009;-72
2023/03/10 10:50:53;;;;;;;;;;;;;;;-142.41;100.00;64449.00;5134552;27;19919;-71
2023/03/10 10:53:23;;;;;;;;;;;;;;;-142.41;100.00;64449.00;5135537;28;20052;-72
2023/03/10 10:56:17;;;;;;;;;;;;;;;-142.41;100.00;64449.00;5136564;28;20350;-73
2023/03/10 10:59:03;;;;;;;;;;;;;;;-142.41;100.00;64449.00;5118089;28;19912;-70
2023/03/10 11:01:47;;;;;;;;;;;;;;;-142.41;100.00;64449.00;5134546;28;19911;-73
2023/03/10 11:04:12;;;;;;;;;;;;;;;-142.41;100.00;64449.00;5123258;28;20367;-74
2023/03/10 11:06:38;;;;;;;;;;;;;;;-142.41;100.00;64449.00;5113948;28;19919;-75
2023/03/10 11:09:05;;;;;;;;;;;;;;;-142.41;100.00;64449.00;5113388;28;19923;-71
2023/03/10 11:11:30;;;;;;;;;;;;;;;-142.41;100.00;64449.00;5113255;28;20370;-76
2023/03/10 11:14:13;;;;;;;;;;;;;;;-142.41;100.00;64449.00;5117973;28;20015;-69
2023/03/10 11:16:39;;;;;;;;;;;;;;;-142.41;100.00;64449.00;5132968;28;20010;-70
2023/03/10 11:19:21;;;;;;;;;;;;;;;-142.41;100.00;64449.00;5133957;28;20048;-72
2023/03/10 11:21:49;;;;;;;;;;;;;;;-142.41;100.00;64449.00;5098455;28;19965;-71
2023/03/10 11:24:20;;;;;;;;;;;;;;;-142.41;100.00;64449.00;5102467;27;19911;-72
2023/03/10 11:27:21;;;;;;;;;;;;;;;-142.41;100.00;64449.00;5137500;27;19950;-70
2023/03/10 11:29:53;;;;;;;;;;;;;;;-142.41;100.00;64449.00;5053738;28;19924;-70
2023/03/10 11:32:47;;;;;;;;;;;;;;;-142.41;100.00;64449.00;5122824;27;19916;-68
2023/03/10 11:35:33;;;;;;;;;;;;;;;-142.41;100.00;64449.00;5063228;27;20019;-71
2023/03/10 11:38:09;;;;;;;;;;;;;;;-142.41;100.00;64449.00;5122524;27;19927;-72
2023/03/10 11:40:40;;;;;;;;;;;;;;;-142.41;100.00;64449.00;5137050;27;19912;-70
2023/03/10 11:43:15;;;;;;;;;;;;;;;-142.41;100.00;64449.00;5137081;27;19934;-71
2023/03/10 11:45:51;;;;;;;;;;;;;;;-142.41;100.00;64449.00;5137140;27;19919;-72
2023/03/10 11:48:19;;;;;;;;;;;;;;;-142.41;100.00;64449.00;5136809;27;19912;-70
2023/03/10 11:51:11;;;;;;;;;;;;;;;-142.41;100.00;64449.00;5136757;27;19918;-71
2023/03/10 11:53:48;;;;;;;;;;;;;;;-142.41;100.00;64449.00;5132344;27;19915;-71
2023/03/10 11:56:16;;;;;;;;;;;;;;;-142.41;100.00;64449.00;5136242;27;19918;-69
2023/03/10 11:58:56;;;;;;;;;;;;;;;-142.41;100.00;64449.00;5136277;27;19912;-70
2023/03/10 12:01:40;;;;;;;;;;;;;;;-142.41;100.00;64449.00;5136463;27;19918;-71
2023/03/10 12:04:15;;;;;;;;;;;;;;;-142.41;100.00;64449.00;5136263;27;19915;-70
2023/03/10 12:06:40;;;;;;;;;;;;;;;-142.41;100.00;64449.00;5136172;27;19911;-71
2023/03/10 12:09:06;;;;;;;;;;;;;;;-142.41;100.00;64449.00;5136278;27;19923;-68
2023/03/10 12:11:34;;;;;;;;;;;;;;;-142.41;100.00;64449.00;5136354;27;20390;-73
2023/03/10 12:14:00;;;;;;;;;;;;;;;-142.41;100.00;64449.00;5135897;27;19934;-71
2023/03/10 12:16:28;;;;;;;;;;;;;;;-142.41;100.00;64449.00;5136477;27;19915;-70
2023/03/10 12:18:56;;;;;;;;;;;;;;;-142.41;100.00;64449.00;5136647;27;19956;-72
2023/03/10 12:21:27;;;;;;;;;;;;;;;-142.41;100.00;64449.00;5118736;27;19958;-70